Time;durP1;ratioP1;P1;durP2;ratioP2;P2;SDS_P1;SDS_P2;PMS_P1;PMS_P2;Temp;Humidity;BMP_temperature;BMP_pressure;BME280_temperature;BME280_humidity;BME280_pressure;Samples;Min_cycle;Max_cycle;Signal;HPM_P1;HPM_P2
2023/04/23 00:01:26;;;;;;;1.37;1.13;;;15.80;99.90;;;;;;4975847;28;20853;-69
2023/04/23 00:03:55;;;;;;;1.60;1.47;;;15.80;99.90;;;;;;4975405;28;20495;-71
2023/04/23 00:06:25;;;;;;;1.80;1.73;;;15.80;99.90;;;;;;4977027;28;20471;-69
2023/04/23 00:08:54;;;;;;;3.20;1.87;;;15.80;99.90;;;;;;4969135;28;20613;-69
2023/04/23 00:11:21;;;;;;;1.13;1.10;;;15.80;99.90;;;;;;4966273;28;20472;-69
2023/04/23 00:13:50;;;;;;;2.73;2.63;;;15.80;99.90;;;;;;4973725;28;20496;-70
2023/04/23 00:16:18;;;;;;;3.50;2.43;;;15.80;99.90;;;;;;4976375;28;20517;-70
2023/04/23 00:18:44;;;;;;;2.10;2.10;;;15.70;99.90;;;;;;4972918;28;20484;-70
2023/04/23 00:21:12;;;;;;;1.97;1.77;;;15.80;99.90;;;;;;4972616;28;20475;-70
2023/04/23 00:23:39;;;;;;;2.30;2.30;;;15.80;99.90;;;;;;4975623;28;20487;-70
2023/04/23 00:26:06;;;;;;;1.93;1.83;;;15.80;99.90;;;;;;4970185;28;20995;-70
2023/04/23 00:28:32;;;;;;;3.00;2.70;;;15.70;99.90;;;;;;4963815;28;20561;-70
2023/04/23 00:31:00;;;;;;;2.67;2.30;;;15.70;99.90;;;;;;4973242;28;20483;-70
2023/04/23 00:33:27;;;;;;;1.50;1.50;;;15.70;99.90;;;;;;4963663;28;20595;-70
2023/04/23 00:35:54;;;;;;;2.10;2.00;;;15.60;99.90;;;;;;4973276;28;20478;-71
2023/04/23 00:38:21;;;;;;;0.73;0.73;;;15.60;99.90;;;;;;4970726;28;20811;-71
2023/04/23 00:40:48;;;;;;;2.00;1.90;;;15.60;99.90;;;;;;4962258;28;20576;-71
2023/04/23 00:43:14;;;;;;;2.03;1.93;;;15.50;99.90;;;;;;4968648;28;20495;-71
2023/04/23 00:45:41;;;;;;;3.90;1.97;;;15.50;99.90;;;;;;4969786;28;20551;-72
2023/04/23 00:48:11;;;;;;;1.37;1.37;;;15.40;99.90;;;;;;4968357;28;20468;-71
2023/04/23 00:50:37;;;;;;;1.90;1.50;;;15.40;99.90;;;;;;4973777;28;20558;-71
2023/04/23 00:53:04;;;;;;;1.43;1.43;;;15.40;99.90;;;;;;4971035;28;20491;-71
2023/04/23 00:55:32;;;;;;;1.60;1.60;;;15.30;99.90;;;;;;4970598;28;20483;-70
2023/04/23 00:57:59;;;;;;;2.63;2.10;;;15.30;99.90;;;;;;4966974;28;20541;-71
2023/04/23 01:00:26;;;;;;;2.50;2.40;;;15.30;99.90;;;;;;4962352;28;20468;-71
2023/04/23 01:02:54;;;;;;;5.40;2.30;;;15.20;99.90;;;;;;4966422;28;20546;-71
2023/04/23 01:05:23;;;;;;;1.83;1.83;;;15.20;99.90;;;;;;4972267;28;20467;-71
2023/04/23 01:07:50;;;;;;;1.83;1.73;;;15.20;99.90;;;;;;4972978;28;20558;-71
2023/04/23 01:10:17;;;;;;;1.43;1.43;;;15.20;99.90;;;;;;4965010;28;20541;-72
2023/04/23 01:12:44;;;;;;;1.63;1.53;;;15.10;99.90;;;;;;4965973;28;20506;-72
2023/04/23 01:15:11;;;;;;;2.63;2.53;;;15.10;99.90;;;;;;4972111;28;20479;-71
2023/04/23 01:17:38;;;;;;;2.50;2.40;;;15.20;99.90;;;;;;4972417;28;20479;-70
2023/04/23 01:20:07;;;;;;;1.80;1.70;;;15.10;99.90;;;;;;4971993;28;20475;-70
2023/04/23 01:22:36;;;;;;;2.13;2.00;;;15.10;99.90;;;;;;4972553;28;20515;-70
2023/04/23 01:25:03;;;;;;;1.63;1.53;;;15.10;99.90;;;;;;4965932;28;20819;-71
2023/04/23 01:27:30;;;;;;;2.70;2.60;;;15.10;99.90;;;;;;4971080;28;20474;-71
2023/04/23 01:29:57;;;;;;;2.27;2.17;;;15.10;99.90;;;;;;4971947;28;20468;-70
2023/04/23 01:32:24;;;;;;;2.47;2.17;;;15.10;99.90;;;;;;4969592;28;20479;-71
2023/04/23 01:34:53;;;;;;;2.30;2.20;;;15.00;99.90;;;;;;4965889;28;20467;-70
2023/04/23 01:37:21;;;;;;;3.00;2.90;;;15.10;99.90;;;;;;4971677;28;20531;-70
2023/04/23 01:39:49;;;;;;;2.53;2.33;;;15.00;99.90;;;;;;4970807;28;20468;-70
2023/04/23 01:42:16;;;;;;;6.23;2.37;;;15.00;99.90;;;;;;4972086;28;20495;-70
2023/04/23 01:44:42;;;;;;;2.57;2.47;;;15.00;99.90;;;;;;4972177;28;20582;-70
2023/04/23 01:47:10;;;;;;;2.23;2.13;;;15.00;99.90;;;;;;4971869;28;20479;-71
2023/04/23 01:49:36;;;;;;;3.27;2.97;;;15.00;99.90;;;;;;4969279;28;20503;-70
2023/04/23 01:52:03;;;;;;;2.43;2.23;;;15.00;99.90;;;;;;4971887;28;20506;-70
2023/04/23 01:54:30;;;;;;;3.80;2.00;;;15.00;99.90;;;;;;4963663;28;20468;-70
2023/04/23 01:56:59;;;;;;;2.30;2.20;;;14.90;99.90;;;;;;4967172;28;20491;-71
2023/04/23 01:59:25;;;;;;;2.57;2.30;;;14.90;99.90;;;;;;4969970;28;20826;-70
2023/04/23 02:01:52;;;;;;;3.60;2.77;;;14.90;99.90;;;;;;4971789;28;20487;-70
2023/04/23 02:04:19;;;;;;;2.20;2.07;;;14.90;99.90;;;;;;4969857;28;20574;-70
2023/04/23 02:06:48;;;;;;;4.10;2.53;;;14.90;99.90;;;;;;4963913;28;20799;-70
2023/04/23 02:09:14;;;;;;;2.70;2.50;;;14.90;99.90;;;;;;4964563;28;20467;-70
2023/04/23 02:11:41;;;;;;;4.13;2.70;;;14.90;99.90;;;;;;4966621;28;20949;-69
2023/04/23 02:14:10;;;;;;;3.97;2.57;;;14.90;99.90;;;;;;4971676;28;20805;-69
2023/04/23 02:16:37;;;;;;;4.53;3.90;;;14.80;99.90;;;;;;4969628;28;20472;-69
2023/04/23 02:19:04;;;;;;;2.73;2.53;;;14.80;99.90;;;;;;4969068;28;20467;-70
2023/04/23 02:21:31;;;;;;;2.67;2.30;;;14.80;99.90;;;;;;4970658;28;20476;-70
2023/04/23 02:23:58;;;;;;;3.10;2.87;;;14.80;99.90;;;;;;4970098;28;20492;-70
2023/04/23 02:26:25;;;;;;;2.77;2.50;;;14.80;99.90;;;;;;4969572;28;21011;-70
2023/04/23 02:28:51;;;;;;;3.53;3.30;;;14.80;99.90;;;;;;4964034;28;20844;-71
2023/04/23 02:31:20;;;;;;;5.93;3.63;;;14.70;99.90;;;;;;4970903;28;20978;-70
2023/04/23 02:33:47;;;;;;;3.57;3.37;;;14.70;99.90;;;;;;4970502;28;21312;-70
2023/04/23 02:36:13;;;;;;;3.17;3.07;;;14.70;99.90;;;;;;4970933;28;20472;-70
2023/04/23 02:38:43;;;;;;;3.50;3.20;;;14.70;99.90;;;;;;4972232;28;20475;-70
2023/04/23 02:41:10;;;;;;;3.63;3.33;;;14.70;99.90;;;;;;4967539;28;20474;-70
2023/04/23 02:43:37;;;;;;;2.97;2.77;;;14.70;99.90;;;;;;4970164;28;20518;-70
2023/04/23 02:46:07;;;;;;;4.13;3.20;;;14.60;99.90;;;;;;4963705;28;20490;-70
2023/04/23 02:48:36;;;;;;;3.47;3.20;;;14.70;99.90;;;;;;4969353;28;20499;-70
2023/04/23 02:51:03;;;;;;;3.83;3.63;;;14.70;99.90;;;;;;4963597;28;20475;-70
2023/04/23 02:53:30;;;;;;;2.97;2.77;;;14.60;99.90;;;;;;4970923;28;20984;-70
2023/04/23 02:55:57;;;;;;;2.83;2.60;;;14.60;99.90;;;;;;4971118;28;20479;-70
2023/04/23 02:58:24;;;;;;;4.67;4.13;;;14.60;99.90;;;;;;4970829;28;20483;-70
2023/04/23 03:00:51;;;;;;;3.83;3.37;;;14.60;99.90;;;;;;4970227;28;20472;-70
2023/04/23 03:03:18;;;;;;;3.60;2.83;;;14.60;99.90;;;;;;4970938;28;20480;-70
2023/04/23 03:05:46;;;;;;;4.27;3.20;;;14.60;99.90;;;;;;4970955;28;20468;-70
2023/04/23 03:08:13;;;;;;;4.80;3.70;;;14.60;99.90;;;;;;4971709;28;20463;-70
2023/04/23 03:10:40;;;;;;;2.33;2.23;;;14.70;99.90;;;;;;4967776;28;20949;-69
2023/04/23 03:13:07;;;;;;;4.37;3.27;;;14.60;99.90;;;;;;4966442;28;20503;-70
2023/04/23 03:15:34;;;;;;;3.40;3.10;;;14.60;99.90;;;;;;4962221;28;20472;-70
2023/04/23 03:18:01;;;;;;;4.17;3.17;;;14.60;99.90;;;;;;4963403;28;20463;-70
2023/04/23 03:20:27;;;;;;;3.10;2.90;;;14.60;99.90;;;;;;4961278;28;20838;-71
2023/04/23 03:22:55;;;;;;;2.80;2.53;;;14.60;99.90;;;;;;4970051;28;20488;-71
2023/04/23 03:25:24;;;;;;;4.30;3.27;;;14.50;99.90;;;;;;4961813;28;20488;-70
2023/04/23 03:27:51;;;;;;;3.50;3.20;;;14.50;99.90;;;;;;4964418;28;20502;-70
2023/04/23 03:30:18;;;;;;;3.70;2.93;;;14.50;99.90;;;;;;4968619;28;20471;-70
2023/04/23 03:32:45;;;;;;;7.63;5.67;;;14.40;99.90;;;;;;4970880;28;20488;-70
2023/04/23 03:35:11;;;;;;;5.67;4.70;;;14.30;99.90;;;;;;4969660;28;20490;-71
2023/04/23 03:37:38;;;;;;;9.63;5.23;;;14.10;99.90;;;;;;4970208;28;20498;-70
2023/04/23 03:40:08;;;;;;;5.83;5.33;;;13.90;99.90;;;;;;4970355;28;20479;-71
2023/04/23 03:42:35;;;;;;;8.13;5.43;;;13.80;99.90;;;;;;4970866;28;20503;-72
2023/04/23 03:45:02;;;;;;;4.73;4.27;;;13.70;99.90;;;;;;4963513;28;20499;-70
2023/04/23 03:47:28;;;;;;;10.80;5.20;;;13.70;99.90;;;;;;4968827;28;20467;-71
2023/04/23 03:49:56;;;;;;;6.43;5.70;;;13.60;99.90;;;;;;4969612;28;20466;-70
2023/04/23 03:52:23;;;;;;;4.60;4.13;;;13.50;99.90;;;;;;4970639;28;21014;-70
2023/04/23 03:54:49;;;;;;;9.90;5.67;;;13.50;99.90;;;;;;4965880;28;20465;-70
2023/04/23 03:57:17;;;;;;;6.77;6.10;;;13.40;99.90;;;;;;4959969;28;20465;-70
2023/04/23 03:59:44;;;;;;;6.00;5.20;;;13.30;99.90;;;;;;4963591;28;20451;-70
2023/04/23 04:02:11;;;;;;;10.23;4.50;;;13.30;99.90;;;;;;4971162;28;20589;-70
2023/04/23 04:04:37;;;;;;;4.90;4.50;;;13.20;99.90;;;;;;4971990;28;20491;-70
2023/04/23 04:07:06;;;;;;;7.80;6.43;;;13.10;99.90;;;;;;4961470;28;20468;-70
2023/04/23 04:09:33;;;;;;;12.80;7.60;;;13.10;99.90;;;;;;4973535;28;20960;-70
2023/04/23 04:12:00;;;;;;;9.27;6.37;;;13.00;99.90;;;;;;4972932;28;20503;-70
2023/04/23 04:14:28;;;;;;;5.57;5.13;;;13.00;99.90;;;;;;4974094;28;20459;-70
2023/04/23 04:16:55;;;;;;;6.77;6.03;;;12.90;99.90;;;;;;4966127;28;20483;-70
2023/04/23 04:19:22;;;;;;;12.57;7.47;;;12.90;99.90;;;;;;4972535;28;20463;-71
2023/04/23 04:21:50;;;;;;;7.70;5.40;;;12.80;99.90;;;;;;4969461;28;20548;-70
2023/04/23 04:24:17;;;;;;;15.40;6.47;;;12.80;99.90;;;;;;4973322;28;20492;-70
2023/04/23 04:26:44;;;;;;;6.77;6.07;;;12.80;99.90;;;;;;4962636;28;20472;-70
2023/04/23 04:29:11;;;;;;;7.70;5.80;;;12.80;99.90;;;;;;4965737;28;20468;-71
2023/04/23 04:31:39;;;;;;;11.43;7.17;;;12.70;99.90;;;;;;4973105;28;20952;-71
2023/04/23 04:34:07;;;;;;;6.30;5.70;;;12.70;99.90;;;;;;4972241;28;20841;-71
2023/04/23 04:36:34;;;;;;;13.17;8.00;;;12.70;99.90;;;;;;4965723;28;20472;-70
2023/04/23 04:39:02;;;;;;;11.50;7.53;;;12.70;99.90;;;;;;4972943;28;20530;-70
2023/04/23 04:41:29;;;;;;;11.30;6.70;;;12.70;99.90;;;;;;4972227;28;20878;-71
2023/04/23 04:43:57;;;;;;;8.20;7.23;;;12.60;99.90;;;;;;4972667;28;20484;-71
2023/04/23 04:46:24;;;;;;;11.90;5.67;;;12.60;99.90;;;;;;4973970;28;20500;-71
2023/04/23 04:48:52;;;;;;;10.60;7.80;;;12.60;99.90;;;;;;4964881;28;20878;-69
2023/04/23 04:51:19;;;;;;;10.07;7.13;;;12.60;99.90;;;;;;4972791;28;20467;-71
2023/04/23 04:53:46;;;;;;;14.50;7.25;;;12.60;99.90;;;;;;4969296;28;20858;-71
2023/04/23 04:56:12;;;;;;;7.57;6.23;;;12.50;99.90;;;;;;4962388;28;20220;-70
2023/04/23 04:58:39;;;;;;;13.63;7.20;;;12.50;99.90;;;;;;4973823;28;20467;-70
2023/04/23 05:01:06;;;;;;;13.57;6.75;;;12.50;99.90;;;;;;4972626;28;20479;-70
2023/04/23 05:03:33;;;;;;;12.53;9.30;;;12.50;99.90;;;;;;4973522;28;20951;-70
2023/04/23 05:06:01;;;;;;;11.27;8.50;;;12.50;99.90;;;;;;4963107;28;20498;-70
2023/04/23 05:08:27;;;;;;;13.05;7.13;;;12.40;99.90;;;;;;4971965;28;20204;-70
2023/04/23 05:10:54;;;;;;;14.87;7.97;;;12.40;99.90;;;;;;4966136;28;20205;-70
2023/04/23 05:13:21;;;;;;;17.35;10.10;;;12.30;99.90;;;;;;4970652;28;20491;-70
2023/04/23 05:15:48;;;;;;;11.43;9.20;;;12.30;99.90;;;;;;4972703;28;20201;-70
2023/04/23 05:18:15;;;;;;;8.00;6.78;;;12.30;99.90;;;;;;4972664;28;20220;-71
2023/04/23 05:20:42;;;;;;;8.82;8.07;;;12.30;99.90;;;;;;4965071;28;20585;-70
2023/04/23 05:23:10;;;;;;;9.57;7.40;;;12.20;99.90;;;;;;4973899;28;20561;-70
2023/04/23 05:25:36;;;;;;;8.52;6.55;;;12.20;99.90;;;;;;4964845;28;20753;-70
2023/04/23 05:28:03;;;;;;;16.35;9.93;;;12.20;99.90;;;;;;4972284;28;20215;-71
2023/04/23 05:30:30;;;;;;;7.60;6.10;;;12.20;99.90;;;;;;4971617;28;20594;-70
2023/04/23 05:32:57;;;;;;;11.10;8.30;;;12.10;99.90;;;;;;4965266;28;20240;-71
2023/04/23 05:35:23;;;;;;;12.55;8.05;;;12.10;99.90;;;;;;4970521;28;20578;-71
2023/04/23 05:37:50;;;;;;;11.40;6.15;;;12.00;99.90;;;;;;4965767;28;20296;-70
2023/04/23 05:40:18;;;;;;;9.73;7.22;;;12.00;99.90;;;;;;4972774;28;20209;-71
2023/04/23 05:42:45;;;;;;;11.30;8.88;;;12.10;99.90;;;;;;4967134;28;20229;-70
2023/04/23 05:45:12;;;;;;;13.20;7.25;;;12.10;99.90;;;;;;4963264;28;20251;-71
2023/04/23 05:47:38;;;;;;;10.77;6.28;;;12.10;99.90;;;;;;4971071;28;20569;-70
2023/04/23 05:50:06;;;;;;;12.18;8.50;;;12.10;99.90;;;;;;4971306;28;20636;-71
2023/04/23 05:52:36;;;;;;;8.90;6.53;;;12.10;99.90;;;;;;4964512;28;20236;-71
2023/04/23 05:55:02;;;;;;;8.25;7.40;;;12.10;99.90;;;;;;4969334;28;20296;-70
2023/04/23 05:57:30;;;;;;;8.32;7.38;;;12.20;99.90;;;;;;4970360;28;20215;-71
2023/04/23 05:59:57;;;;;;;8.35;6.47;;;12.20;99.90;;;;;;4972378;28;20205;-71
2023/04/23 06:02:24;;;;;;;7.10;6.40;;;12.20;99.90;;;;;;4971189;28;20705;-70
2023/04/23 06:04:50;;;;;;;11.53;9.00;;;12.10;99.90;;;;;;4964593;28;20476;-70
2023/04/23 06:07:17;;;;;;;7.45;5.95;;;12.10;99.90;;;;;;4970737;28;20472;-71
2023/04/23 06:09:44;;;;;;;9.25;7.15;;;12.10;99.90;;;;;;4971827;28;20209;-70
2023/04/23 06:12:11;;;;;;;8.50;5.40;;;12.20;99.90;;;;;;4963780;28;20945;-71
2023/04/23 06:14:39;;;;;;;8.00;5.60;;;12.20;99.90;;;;;;4966809;28;20535;-70
2023/04/23 06:17:05;;;;;;;14.47;9.10;;;12.20;99.90;;;;;;4972067;28;20475;-71
2023/04/23 06:19:32;;;;;;;8.40;6.70;;;12.30;99.90;;;;;;4972089;28;20467;-70
2023/04/23 06:21:59;;;;;;;10.40;6.77;;;12.30;99.90;;;;;;4971152;28;20491;-70
2023/04/23 06:24:26;;;;;;;5.33;4.83;;;12.30;99.90;;;;;;4970308;28;20516;-71
2023/04/23 06:26:52;;;;;;;8.97;6.33;;;12.40;99.90;;;;;;4971721;28;20838;-71
2023/04/23 06:29:19;;;;;;;5.73;4.90;;;12.40;99.90;;;;;;4970461;28;20472;-70
2023/04/23 06:31:47;;;;;;;7.13;5.93;;;12.40;99.90;;;;;;4971716;28;20504;-72
2023/04/23 06:34:14;;;;;;;5.80;4.73;;;12.40;99.90;;;;;;4970448;28;20476;-71
2023/04/23 06:36:42;;;;;;;9.77;5.17;;;12.40;99.90;;;;;;4970106;28;20861;-70
2023/04/23 06:39:09;;;;;;;8.37;6.87;;;12.50;99.90;;;;;;4967059;28;20535;-71
2023/04/23 06:41:36;;;;;;;11.13;7.23;;;12.50;99.90;;;;;;4970767;28;20472;-70
2023/04/23 06:44:02;;;;;;;7.90;5.97;;;12.50;99.90;;;;;;4963667;28;20490;-71
2023/04/23 06:46:29;;;;;;;6.27;5.63;;;12.50;99.90;;;;;;4968782;28;20591;-70
2023/04/23 06:48:57;;;;;;;4.57;4.07;;;12.50;99.90;;;;;;4970310;28;20468;-70
2023/04/23 06:51:26;;;;;;;6.90;5.33;;;12.40;99.90;;;;;;4968896;28;20575;-70
2023/04/23 06:53:53;;;;;;;6.00;4.30;;;12.50;99.90;;;;;;4961778;28;20496;-71
2023/04/23 06:56:20;;;;;;;4.47;4.00;;;12.40;99.90;;;;;;4968955;28;20792;-70
2023/04/23 06:58:47;;;;;;;2.70;2.60;;;12.40;99.90;;;;;;4971396;28;20928;-71
2023/04/23 07:01:14;;;;;;;5.33;4.13;;;12.40;99.90;;;;;;4963075;28;20484;-69
2023/04/23 07:03:43;;;;;;;3.60;3.30;;;12.30;99.90;;;;;;4967768;28;20491;-70
2023/04/23 07:06:11;;;;;;;3.20;2.57;;;12.30;99.90;;;;;;4968984;28;20567;-71
2023/04/23 07:08:38;;;;;;;3.70;3.40;;;12.20;99.90;;;;;;4969483;28;20531;-71
2023/04/23 07:11:05;;;;;;;4.03;3.20;;;12.20;99.90;;;;;;4970384;28;20558;-71
2023/04/23 07:13:32;;;;;;;2.80;2.60;;;12.20;99.90;;;;;;4961447;28;20496;-70
2023/04/23 07:15:59;;;;;;;4.40;3.37;;;12.20;99.90;;;;;;4969239;28;20805;-70
2023/04/23 07:18:25;;;;;;;3.70;3.40;;;12.20;99.90;;;;;;4971039;28;20472;-70
2023/04/23 07:20:52;;;;;;;10.90;3.63;;;12.20;99.90;;;;;;4964987;28;20469;-70
2023/04/23 07:23:20;;;;;;;3.37;2.13;;;12.20;99.90;;;;;;4966991;28;20495;-70
2023/04/23 07:25:47;;;;;;;8.27;4.33;;;12.30;99.90;;;;;;4968865;28;21067;-70
2023/04/23 07:28:14;;;;;;;5.40;4.90;;;12.30;99.90;;;;;;4969397;28;20839;-70
2023/04/23 07:30:41;;;;;;;5.73;4.57;;;12.40;99.90;;;;;;4970742;28;20464;-71
2023/04/23 07:33:07;;;;;;;3.53;3.27;;;12.40;99.90;;;;;;4966494;28;20488;-70
2023/04/23 07:35:34;;;;;;;4.20;3.93;;;12.50;99.90;;;;;;4969115;28;20468;-70
2023/04/23 07:38:01;;;;;;;3.03;2.93;;;12.50;99.90;;;;;;4975102;28;20464;-70
2023/04/23 07:40:29;;;;;;;5.83;3.10;;;12.50;99.90;;;;;;4974984;28;20995;-70
2023/04/23 07:42:57;;;;;;;8.93;3.97;;;12.50;99.90;;;;;;4974852;28;20787;-70
2023/04/23 07:45:24;;;;;;;2.73;2.50;;;12.50;99.90;;;;;;4974443;28;20996;-70
2023/04/23 07:47:51;;;;;;;5.83;4.03;;;12.60;99.90;;;;;;4975676;28;20657;-71
2023/04/23 07:50:18;;;;;;;4.17;3.30;;;12.70;99.90;;;;;;4966380;28;20476;-70
2023/04/23 07:52:44;;;;;;;4.10;2.80;;;12.80;99.90;;;;;;4975689;28;20487;-71
2023/04/23 07:55:11;;;;;;;2.47;2.37;;;13.00;99.90;;;;;;4972170;28;20468;-71
2023/04/23 07:57:39;;;;;;;2.77;2.57;;;13.10;99.90;;;;;;4979291;28;20479;-71
2023/04/23 08:00:08;;;;;;;1.57;1.57;;;13.20;99.90;;;;;;4975162;28;20472;-71
2023/04/23 08:02:35;;;;;;;4.13;3.13;;;13.30;99.90;;;;;;4976859;28;20897;-71
2023/04/23 08:05:02;;;;;;;2.67;2.47;;;13.50;99.90;;;;;;4973526;28;20472;-71
2023/04/23 08:07:29;;;;;;;3.70;2.47;;;13.50;99.90;;;;;;4972950;28;20490;-71
2023/04/23 08:10:01;;;;;;;4.20;3.20;;;13.50;99.90;;;;;;4973945;28;21020;-71
2023/04/23 08:12:28;;;;;;;3.83;2.87;;;13.50;99.90;;;;;;4975000;28;20518;-71
2023/04/23 08:14:56;;;;;;;8.40;2.93;;;13.60;99.90;;;;;;4974138;28;20559;-69
2023/04/23 08:17:23;;;;;;;3.30;3.10;;;13.70;99.90;;;;;;4967612;28;20491;-72
2023/04/23 08:19:50;;;;;;;3.20;2.90;;;13.80;99.90;;;;;;4973925;28;20538;-71
2023/04/23 08:22:16;;;;;;;3.63;3.33;;;13.90;99.90;;;;;;4971148;28;20494;-70
2023/04/23 08:24:44;;;;;;;3.33;3.23;;;14.10;99.90;;;;;;4977612;28;20905;-71
2023/04/23 08:27:11;;;;;;;3.87;3.53;;;14.30;99.90;;;;;;4970593;28;20684;-72
2023/04/23 08:29:37;;;;;;;2.93;2.73;;;14.50;99.90;;;;;;4973639;28;20479;-71
2023/04/23 08:32:06;;;;;;;2.70;2.60;;;14.60;99.90;;;;;;4976964;28;20854;-70
2023/04/23 08:34:32;;;;;;;3.23;3.03;;;14.70;99.90;;;;;;4971013;28;20474;-71
2023/04/23 08:36:59;;;;;;;3.50;3.30;;;14.80;99.90;;;;;;4973377;28;20468;-74
2023/04/23 08:39:26;;;;;;;4.80;4.00;;;14.90;99.90;;;;;;4973910;28;20460;-73
2023/04/23 08:41:55;;;;;;;4.17;3.77;;;15.10;99.90;;;;;;4974203;28;20494;-73
2023/04/23 08:44:24;;;;;;;4.53;4.33;;;15.40;99.90;;;;;;4973299;28;20467;-73
2023/04/23 08:46:53;;;;;;;5.10;4.60;;;15.50;99.90;;;;;;4974022;28;20980;-74
2023/04/23 08:49:21;;;;;;;3.40;3.10;;;15.50;99.90;;;;;;4973032;28;20467;-73
2023/04/23 08:51:52;;;;;;;4.30;3.60;;;15.50;99.90;;;;;;4974158;28;20475;-74
2023/04/23 08:54:23;;;;;;;4.10;3.70;;;15.40;99.90;;;;;;4973225;28;20848;-74
2023/04/23 08:56:51;;;;;;;3.60;3.40;;;15.40;99.90;;;;;;4973598;28;20460;-74
2023/04/23 08:59:19;;;;;;;4.57;4.27;;;15.40;99.90;;;;;;4973633;28;20468;-73
2023/04/23 09:01:46;;;;;;;3.57;3.37;;;15.60;99.90;;;;;;4973921;28;20582;-73
2023/04/23 09:04:15;;;;;;;4.20;3.30;;;15.60;99.90;;;;;;4972593;28;20807;-73
2023/04/23 09:06:44;;;;;;;3.83;3.60;;;15.60;99.90;;;;;;4973588;28;21029;-73
2023/04/23 09:09:11;;;;;;;3.87;3.60;;;15.70;99.90;;;;;;4973414;28;20538;-73
2023/04/23 09:11:39;;;;;;;3.93;3.60;;;15.60;99.90;;;;;;4973424;28;21027;-73
2023/04/23 09:14:05;;;;;;;3.87;3.60;;;15.70;99.90;;;;;;4972875;28;20468;-73
2023/04/23 09:16:32;;;;;;;3.67;3.37;;;15.80;99.90;;;;;;4973476;28;20471;-73
2023/04/23 09:18:59;;;;;;;3.83;2.97;;;16.00;99.90;;;;;;4972710;28;20478;-73
2023/04/23 09:21:26;;;;;;;2.80;2.70;;;16.00;99.90;;;;;;4973692;28;20975;-73
2023/04/23 09:23:54;;;;;;;3.20;3.00;;;15.90;99.90;;;;;;4972562;28;20484;-73
2023/04/23 09:26:22;;;;;;;3.67;3.47;;;15.90;99.90;;;;;;4973447;28;20579;-73
2023/04/23 09:28:50;;;;;;;4.17;3.73;;;16.00;99.90;;;;;;4972136;28;20460;-73
2023/04/23 09:31:21;;;;;;;3.13;2.83;;;15.90;99.90;;;;;;4973399;28;20535;-73
2023/04/23 09:33:51;;;;;;;3.73;3.30;;;15.80;99.90;;;;;;4972933;28;20488;-73
2023/04/23 09:36:21;;;;;;;3.67;3.37;;;15.80;99.90;;;;;;4972860;28;20543;-73
2023/04/23 09:38:48;;;;;;;3.10;3.00;;;15.80;99.90;;;;;;4972973;28;20475;-74
2023/04/23 09:41:24;;;;;;;2.73;2.63;;;15.90;99.90;;;;;;4973073;28;20460;-73
2023/04/23 09:43:53;;;;;;;3.40;2.90;;;15.90;99.90;;;;;;4972115;28;20574;-74
2023/04/23 09:46:32;;;;;;;3.70;2.90;;;16.00;99.90;;;;;;4972659;28;20484;-73
2023/04/23 09:49:01;;;;;;;3.67;3.33;;;16.10;99.90;;;;;;4971996;28;20479;-73
2023/04/23 09:51:30;;;;;;;3.53;3.20;;;16.30;99.90;;;;;;4972863;28;20463;-72
2023/04/23 09:53:57;;;;;;;2.77;2.57;;;16.40;99.90;;;;;;4971677;28;20496;-72
2023/04/23 09:56:26;;;;;;;4.07;3.30;;;16.40;99.90;;;;;;4972648;28;20464;-72
2023/04/23 09:58:53;;;;;;;2.63;2.53;;;16.40;99.90;;;;;;4972256;28;20474;-72
2023/04/23 10:01:27;;;;;;;3.60;3.30;;;16.30;99.90;;;;;;4971656;28;20471;-72
2023/04/23 10:03:55;;;;;;;2.67;2.50;;;16.30;99.90;;;;;;4971571;28;20494;-72
2023/04/23 10:06:28;;;;;;;3.17;2.97;;;16.30;99.90;;;;;;4972366;28;20573;-73
2023/04/23 10:08:55;;;;;;;4.40;3.43;;;16.30;99.90;;;;;;4972952;28;20888;-73
2023/04/23 10:11:24;;;;;;;2.90;2.80;;;16.30;99.90;;;;;;4972371;28;20459;-73
2023/04/23 10:13:53;;;;;;;2.40;2.37;;;16.10;99.90;;;;;;4971750;28;20505;-73
2023/04/23 10:16:22;;;;;;;4.43;3.50;;;16.10;99.90;;;;;;4972530;28;20463;-73
2023/04/23 10:18:50;;;;;;;3.90;3.60;;;16.20;99.90;;;;;;4972408;28;20513;-72
2023/04/23 10:21:19;;;;;;;4.33;3.50;;;16.20;99.90;;;;;;4971857;28;20468;-72
2023/04/23 10:23:47;;;;;;;6.40;3.53;;;16.30;99.90;;;;;;4971805;28;20566;-72
2023/04/23 10:26:15;;;;;;;3.47;3.30;;;16.30;99.90;;;;;;4972342;28;20491;-73
2023/04/23 10:28:46;;;;;;;3.90;3.60;;;16.30;99.90;;;;;;4972268;28;20865;-73
2023/04/23 10:31:15;;;;;;;4.80;3.97;;;16.30;99.90;;;;;;4972402;28;20471;-73
2023/04/23 10:33:43;;;;;;;3.77;3.57;;;16.40;99.90;;;;;;4972060;28;20488;-73
2023/04/23 10:36:11;;;;;;;3.83;3.53;;;16.40;99.90;;;;;;4972223;28;20813;-73
2023/04/23 10:38:38;;;;;;;3.77;3.40;;;16.50;99.90;;;;;;4972022;28;20467;-73
2023/04/23 10:41:07;;;;;;;5.43;4.93;;;16.50;99.90;;;;;;4971937;28;20463;-72
2023/04/23 10:43:34;;;;;;;3.50;2.97;;;16.50;99.90;;;;;;4973890;28;20490;-71
2023/04/23 10:46:01;;;;;;;3.07;2.90;;;16.50;99.90;;;;;;4981393;28;20523;-74
2023/04/23 10:48:29;;;;;;;4.73;4.33;;;16.50;99.90;;;;;;4982727;28;20483;-72
2023/04/23 10:50:59;;;;;;;6.50;3.50;;;16.50;99.90;;;;;;4981186;28;20464;-72
2023/04/23 10:53:26;;;;;;;2.93;2.70;;;16.60;99.90;;;;;;4981779;28;20491;-72
2023/04/23 10:56:06;;;;;;;3.67;3.47;;;16.60;99.90;;;;;;4980863;28;20460;-74
2023/04/23 10:58:48;;;;;;;4.00;3.70;;;16.70;99.90;;;;;;4982791;28;20471;-72
2023/04/23 11:01:16;;;;;;;2.80;2.60;;;16.70;99.90;;;;;;4983339;28;20475;-72
2023/04/23 11:03:46;;;;;;;2.80;2.60;;;16.80;99.90;;;;;;4981496;28;20494;-72
2023/04/23 11:06:15;;;;;;;2.90;2.27;;;16.80;99.90;;;;;;4981558;28;20510;-72
2023/04/23 11:08:52;;;;;;;2.00;1.77;;;16.80;99.90;;;;;;4982572;28;20538;-73
2023/04/23 11:11:19;;;;;;;1.30;1.30;;;16.90;99.90;;;;;;4985677;28;20463;-72
2023/04/23 11:13:53;;;;;;;2.23;2.23;;;17.00;99.90;;;;;;4982459;28;20496;-74
2023/04/23 11:16:22;;;;;;;2.50;2.40;;;17.10;99.90;;;;;;4981315;28;20471;-73
2023/04/23 11:18:57;;;;;;;1.97;1.87;;;17.10;99.90;;;;;;4980814;28;21058;-72
2023/04/23 11:21:58;;;;;;;2.63;2.43;;;17.20;99.90;;;;;;4981762;28;20909;-73
2023/04/23 11:24:27;;;;;;;2.13;2.03;;;17.20;99.90;;;;;;4981865;28;20468;-72
2023/04/23 11:26:54;;;;;;;1.77;1.77;;;17.50;99.90;;;;;;4982320;28;20484;-71
2023/04/23 11:29:22;;;;;;;2.03;1.93;;;17.70;99.90;;;;;;4981111;28;20474;-71
2023/04/23 11:31:49;;;;;;;2.63;2.50;;;17.60;99.90;;;;;;4981918;28;20518;-71
2023/04/23 11:34:18;;;;;;;2.53;2.20;;;17.50;99.90;;;;;;4979505;28;20479;-72
2023/04/23 11:36:45;;;;;;;2.00;2.00;;;17.50;99.90;;;;;;4981170;28;20460;-72
2023/04/23 11:39:12;;;;;;;1.60;1.50;;;17.50;99.90;;;;;;4980694;28;20814;-72
2023/04/23 11:41:39;;;;;;;1.50;1.50;;;17.60;99.90;;;;;;4980632;28;20503;-72
2023/04/23 11:44:07;;;;;;;1.47;1.47;;;17.60;99.90;;;;;;4980387;28;20471;-73
2023/04/23 11:46:34;;;;;;;1.50;1.50;;;17.70;99.90;;;;;;4981130;28;20598;-72
2023/04/23 11:49:00;;;;;;;2.93;1.80;;;17.80;99.90;;;;;;4979202;28;20455;-71
2023/04/23 11:51:28;;;;;;;1.60;1.53;;;18.00;99.90;;;;;;4980105;28;20477;-71
2023/04/23 11:54:03;;;;;;;1.73;1.73;;;18.10;99.90;;;;;;4980067;28;20484;-71
2023/04/23 11:56:30;;;;;;;1.70;1.70;;;18.10;99.90;;;;;;4980230;28;20550;-71
2023/04/23 11:59:00;;;;;;;1.87;1.77;;;18.10;99.90;;;;;;4980026;28;20464;-73
2023/04/23 12:01:27;;;;;;;2.07;1.97;;;18.10;99.90;;;;;;4979921;28;20468;-72
2023/04/23 12:03:54;;;;;;;1.73;1.70;;;18.10;99.90;;;;;;4979953;28;20484;-70
2023/04/23 12:06:20;;;;;;;1.50;1.50;;;18.10;99.90;;;;;;4979969;28;20483;-72
2023/04/23 12:08:49;;;;;;;1.37;1.37;;;18.40;99.90;;;;;;4979418;28;20471;-73
2023/04/23 12:11:16;;;;;;;0.97;0.97;;;18.50;99.90;;;;;;4979230;28;20471;-72
2023/04/23 12:13:42;;;;;;;1.40;1.40;;;18.60;99.90;;;;;;4979713;28;20491;-73
2023/04/23 12:16:09;;;;;;;1.97;1.87;;;18.60;99.90;;;;;;4978593;28;20473;-72
2023/04/23 12:18:43;;;;;;;4.27;2.13;;;18.70;99.90;;;;;;4979868;28;20497;-72
2023/04/23 12:21:11;;;;;;;1.70;1.60;;;18.70;99.90;;;;;;4978174;28;20470;-72
2023/04/23 12:23:38;;;;;;;2.00;2.00;;;18.90;99.90;;;;;;4980767;28;20567;-73
2023/04/23 12:26:10;;;;;;;1.80;0.90;;;19.00;99.90;;;;;;4982615;28;20467;-72
2023/04/23 12:28:46;;;;;;;1.33;1.33;;;19.20;99.90;;;;;;4981702;28;20862;-72
2023/04/23 12:31:19;;;;;;;1.17;1.17;;;19.30;99.90;;;;;;4982345;28;20463;-72
2023/04/23 12:33:46;;;;;;;1.30;1.30;;;19.40;99.90;;;;;;4981408;28;20484;-72
2023/04/23 12:36:16;;;;;;;1.60;1.60;;;19.50;99.90;;;;;;4982782;28;20482;-72
2023/04/23 12:38:43;;;;;;;1.73;1.63;;;19.50;99.90;;;;;;4983221;28;20464;-72
2023/04/23 12:41:11;;;;;;;2.20;2.00;;;19.50;99.90;;;;;;4983224;28;20463;-72
2023/04/23 12:43:37;;;;;;;1.60;1.50;;;19.40;99.90;;;;;;4984105;28;20603;-73
2023/04/23 12:46:04;;;;;;;1.00;1.00;;;19.30;99.90;;;;;;4983077;28;20468;-72
2023/04/23 12:48:31;;;;;;;1.27;1.27;;;19.30;99.90;;;;;;4982007;28;20496;-72